sensor_id;sensor_type;location;lat;lon;timestamp;temperature;humidity
9919;DHT22;4998;51.024;13.828;2023-08-30T00:00:02;18.00;99.90
9919;DHT22;4998;51.024;13.828;2023-08-30T00:02:29;17.90;99.90
9919;DHT22;4998;51.024;13.828;2023-08-30T00:04:58;18.00;99.90
9919;DHT22;4998;51.024;13.828;2023-08-30T00:07:26;18.00;99.90
9919;DHT22;4998;51.024;13.828;2023-08-30T00:09:53;18.00;99.90
9919;DHT22;4998;51.024;13.828;2023-08-30T00:12:21;18.00;99.90
9919;DHT22;4998;51.024;13.828;2023-08-30T00:14:48;18.00;99.90
9919;DHT22;4998;51.024;13.828;2023-08-30T00:17:15;18.00;99.90
9919;DHT22;4998;51.024;13.828;2023-08-30T00:19:42;18.00;99.90
9919;DHT22;4998;51.024;13.828;2023-08-30T00:22:09;18.10;99.90
9919;DHT22;4998;51.024;13.828;2023-08-30T00:24:36;18.10;99.90
9919;DHT22;4998;51.024;13.828;2023-08-30T00:27:03;18.00;99.90
9919;DHT22;4998;51.024;13.828;2023-08-30T00:29:32;18.10;99.90
9919;DHT22;4998;51.024;13.828;2023-08-30T00:31:59;18.10;99.90
9919;DHT22;4998;51.024;13.828;2023-08-30T00:34:26;18.00;99.90
9919;DHT22;4998;51.024;13.828;2023-08-30T00:36:53;18.10;99.90
9919;DHT22;4998;51.024;13.828;2023-08-30T00:39:20;18.00;99.90
9919;DHT22;4998;51.024;13.828;2023-08-30T00:41:47;18.10;99.90
9919;DHT22;4998;51.024;13.828;2023-08-30T00:44:14;18.00;99.90
9919;DHT22;4998;51.024;13.828;2023-08-30T00:46:42;18.00;99.90
9919;DHT22;4998;51.024;13.828;2023-08-30T00:49:09;18.00;99.90
9919;DHT22;4998;51.024;13.828;2023-08-30T00:51:37;18.10;99.90
9919;DHT22;4998;51.024;13.828;2023-08-30T00:54:04;18.10;99.90
9919;DHT22;4998;51.024;13.828;2023-08-30T00:56:32;18.10;99.90
9919;DHT22;4998;51.024;13.828;2023-08-30T00:58:59;18.10;99.90
9919;DHT22;4998;51.024;13.828;2023-08-30T01:01:26;18.10;99.90
9919;DHT22;4998;51.024;13.828;2023-08-30T01:03:54;18.20;99.90
9919;DHT22;4998;51.024;13.828;2023-08-30T01:06:21;18.10;99.90
9919;DHT22;4998;51.024;13.828;2023-08-30T01:08:49;18.20;99.90
9919;DHT22;4998;51.024;13.828;2023-08-30T01:11:24;18.10;99.90
9919;DHT22;4998;51.024;13.828;2023-08-30T01:13:55;18.20;99.90
9919;DHT22;4998;51.024;13.828;2023-08-30T01:16:23;18.20;99.90
9919;DHT22;4998;51.024;13.828;2023-08-30T01:18:55;18.10;99.90
9919;DHT22;4998;51.024;13.828;2023-08-30T01:21:32;18.10;99.90
9919;DHT22;4998;51.024;13.828;2023-08-30T01:24:05;18.20;99.90
9919;DHT22;4998;51.024;13.828;2023-08-30T01:26:41;18.20;99.90
9919;DHT22;4998;51.024;13.828;2023-08-30T01:29:11;18.20;99.90
9919;DHT22;4998;51.024;13.828;2023-08-30T01:31:40;18.20;99.90
9919;DHT22;4998;51.024;13.828;2023-08-30T01:34:08;18.20;99.90
9919;DHT22;4998;51.024;13.828;2023-08-30T01:36:36;18.20;99.90
9919;DHT22;4998;51.024;13.828;2023-08-30T01:45:48;18.30;99.90
9919;DHT22;4998;51.024;13.828;2023-08-30T01:48:17;18.20;99.90
9919;DHT22;4998;51.024;13.828;2023-08-30T01:50:45;18.20;99.90
9919;DHT22;4998;51.024;13.828;2023-08-30T01:53:13;18.20;99.90
9919;DHT22;4998;51.024;13.828;2023-08-30T01:55:40;18.20;99.90
9919;DHT22;4998;51.024;13.828;2023-08-30T01:58:07;18.20;99.90
9919;DHT22;4998;51.024;13.828;2023-08-30T02:00:35;18.20;99.90
9919;DHT22;4998;51.024;13.828;2023-08-30T02:03:09;18.30;99.90
9919;DHT22;4998;51.024;13.828;2023-08-30T02:05:39;18.30;99.90
9919;DHT22;4998;51.024;13.828;2023-08-30T02:08:13;18.30;99.90
9919;DHT22;4998;51.024;13.828;2023-08-30T02:10:43;18.30;99.90
9919;DHT22;4998;51.024;13.828;2023-08-30T02:13:12;18.40;99.90
9919;DHT22;4998;51.024;13.828;2023-08-30T02:15:41;18.40;99.90
9919;DHT22;4998;51.024;13.828;2023-08-30T02:18:10;18.40;99.90
9919;DHT22;4998;51.024;13.828;2023-08-30T02:20:37;18.50;99.90
9919;DHT22;4998;51.024;13.828;2023-08-30T02:23:04;18.50;99.90
9919;DHT22;4998;51.024;13.828;2023-08-30T02:25:31;18.50;99.90
9919;DHT22;4998;51.024;13.828;2023-08-30T02:27:58;18.40;99.90
9919;DHT22;4998;51.024;13.828;2023-08-30T02:30:25;18.40;99.90
9919;DHT22;4998;51.024;13.828;2023-08-30T02:32:52;18.50;99.90
9919;DHT22;4998;51.024;13.828;2023-08-30T02:35:20;18.40;99.90
9919;DHT22;4998;51.024;13.828;2023-08-30T02:37:47;18.50;99.90
9919;DHT22;4998;51.024;13.828;2023-08-30T02:40:14;18.50;99.90
9919;DHT22;4998;51.024;13.828;2023-08-30T02:42:41;18.50;99.90
9919;DHT22;4998;51.024;13.828;2023-08-30T02:45:09;18.50;99.90
9919;DHT22;4998;51.024;13.828;2023-08-30T02:47:36;18.50;99.90
9919;DHT22;4998;51.024;13.828;2023-08-30T02:50:03;18.50;99.90
9919;DHT22;4998;51.024;13.828;2023-08-30T02:52:32;18.40;99.90
9919;DHT22;4998;51.024;13.828;2023-08-30T02:54:59;18.40;99.90
9919;DHT22;4998;51.024;13.828;2023-08-30T02:57:26;18.40;99.90
9919;DHT22;4998;51.024;13.828;2023-08-30T02:59:53;18.40;99.90
9919;DHT22;4998;51.024;13.828;2023-08-30T03:02:20;18.50;99.90
9919;DHT22;4998;51.024;13.828;2023-08-30T03:04:47;18.50;99.90
9919;DHT22;4998;51.024;13.828;2023-08-30T03:07:13;18.50;99.90
9919;DHT22;4998;51.024;13.828;2023-08-30T03:09:42;18.50;99.90
9919;DHT22;4998;51.024;13.828;2023-08-30T03:12:09;18.40;99.90
9919;DHT22;4998;51.024;13.828;2023-08-30T03:14:36;18.50;99.90
9919;DHT22;4998;51.024;13.828;2023-08-30T03:17:03;18.40;99.90
9919;DHT22;4998;51.024;13.828;2023-08-30T03:19:30;18.40;99.90
9919;DHT22;4998;51.024;13.828;2023-08-30T03:21:57;18.40;99.90
9919;DHT22;4998;51.024;13.828;2023-08-30T03:24:25;18.40;99.90
9919;DHT22;4998;51.024;13.828;2023-08-30T03:26:54;18.40;99.90
9919;DHT22;4998;51.024;13.828;2023-08-30T03:29:21;18.30;99.90
9919;DHT22;4998;51.024;13.828;2023-08-30T03:31:48;18.30;99.90
9919;DHT22;4998;51.024;13.828;2023-08-30T03:34:15;18.30;99.90
9919;DHT22;4998;51.024;13.828;2023-08-30T03:36:42;18.30;99.90
9919;DHT22;4998;51.024;13.828;2023-08-30T03:39:09;18.30;99.90
9919;DHT22;4998;51.024;13.828;2023-08-30T03:41:38;18.30;99.90
9919;DHT22;4998;51.024;13.828;2023-08-30T03:44:06;18.30;99.90
9919;DHT22;4998;51.024;13.828;2023-08-30T03:46:33;18.20;99.90
9919;DHT22;4998;51.024;13.828;2023-08-30T03:49:00;18.20;99.90
9919;DHT22;4998;51.024;13.828;2023-08-30T03:51:27;18.20;99.90
9919;DHT22;4998;51.024;13.828;2023-08-30T03:53:54;18.20;99.90
9919;DHT22;4998;51.024;13.828;2023-08-30T03:56:21;18.20;99.90
9919;DHT22;4998;51.024;13.828;2023-08-30T03:58:48;18.20;99.90
9919;DHT22;4998;51.024;13.828;2023-08-30T04:01:17;18.20;99.90
9919;DHT22;4998;51.024;13.828;2023-08-30T04:03:44;18.20;99.90
9919;DHT22;4998;51.024;13.828;2023-08-30T04:06:11;18.10;99.90
9919;DHT22;4998;51.024;13.828;2023-08-30T04:08:38;18.10;99.90
9919;DHT22;4998;51.024;13.828;2023-08-30T04:11:05;18.10;99.90
9919;DHT22;4998;51.024;13.828;2023-08-30T04:13:31;18.10;99.90
9919;DHT22;4998;51.024;13.828;2023-08-30T04:15:58;18.10;99.90
9919;DHT22;4998;51.024;13.828;2023-08-30T04:18:26;18.10;99.90
9919;DHT22;4998;51.024;13.828;2023-08-30T04:20:53;18.20;99.90
9919;DHT22;4998;51.024;13.828;2023-08-30T04:23:20;18.10;99.90
9919;DHT22;4998;51.024;13.828;2023-08-30T04:25:47;18.20;99.90
9919;DHT22;4998;51.024;13.828;2023-08-30T04:28:14;18.20;99.90
9919;DHT22;4998;51.024;13.828;2023-08-30T04:30:41;18.20;99.90
9919;DHT22;4998;51.024;13.828;2023-08-30T04:33:08;18.20;99.90
9919;DHT22;4998;51.024;13.828;2023-08-30T04:35:36;18.20;99.90
9919;DHT22;4998;51.024;13.828;2023-08-30T04:38:04;18.20;99.90
9919;DHT22;4998;51.024;13.828;2023-08-30T04:40:32;18.20;99.90
9919;DHT22;4998;51.024;13.828;2023-08-30T04:42:59;18.20;99.90
9919;DHT22;4998;51.024;13.828;2023-08-30T04:45:26;18.20;99.90
9919;DHT22;4998;51.024;13.828;2023-08-30T04:47:52;18.30;99.90
9919;DHT22;4998;51.024;13.828;2023-08-30T04:50:20;18.30;99.90
9919;DHT22;4998;51.024;13.828;2023-08-30T04:52:48;18.30;99.90
9919;DHT22;4998;51.024;13.828;2023-08-30T04:55:15;18.30;99.90
9919;DHT22;4998;51.024;13.828;2023-08-30T04:57:42;18.30;99.90
9919;DHT22;4998;51.024;13.828;2023-08-30T05:00:11;18.40;99.90
9919;DHT22;4998;51.024;13.828;2023-08-30T05:02:38;18.40;99.90
9919;DHT22;4998;51.024;13.828;2023-08-30T05:05:06;18.40;99.90
9919;DHT22;4998;51.024;13.828;2023-08-30T05:07:34;18.40;99.90
9919;DHT22;4998;51.024;13.828;2023-08-30T05:10:02;18.50;99.90
9919;DHT22;4998;51.024;13.828;2023-08-30T05:12:30;18.50;99.90
9919;DHT22;4998;51.024;13.828;2023-08-30T05:14:57;18.50;99.90
9919;DHT22;4998;51.024;13.828;2023-08-30T05:17:24;18.60;99.90
9919;DHT22;4998;51.024;13.828;2023-08-30T05:19:51;18.60;99.90
9919;DHT22;4998;51.024;13.828;2023-08-30T05:22:18;18.60;99.90
9919;DHT22;4998;51.024;13.828;2023-08-30T05:24:45;18.60;99.90
9919;DHT22;4998;51.024;13.828;2023-08-30T05:27:13;18.60;99.90
9919;DHT22;4998;51.024;13.828;2023-08-30T05:29:40;18.70;99.90
9919;DHT22;4998;51.024;13.828;2023-08-30T05:32:07;18.70;99.90
9919;DHT22;4998;51.024;13.828;2023-08-30T05:34:34;18.70;99.90
9919;DHT22;4998;51.024;13.828;2023-08-30T05:37:01;18.70;99.90
9919;DHT22;4998;51.024;13.828;2023-08-30T05:39:28;18.70;99.90
9919;DHT22;4998;51.024;13.828;2023-08-30T05:41:55;18.80;99.90
9919;DHT22;4998;51.024;13.828;2023-08-30T05:44:23;18.80;99.90
9919;DHT22;4998;51.024;13.828;2023-08-30T05:46:50;18.80;99.90
9919;DHT22;4998;51.024;13.828;2023-08-30T05:49:17;18.80;99.90
9919;DHT22;4998;51.024;13.828;2023-08-30T05:51:44;18.80;99.90
9919;DHT22;4998;51.024;13.828;2023-08-30T05:54:13;18.80;99.90
9919;DHT22;4998;51.024;13.828;2023-08-30T05:56:40;18.80;99.90
9919;DHT22;4998;51.024;13.828;2023-08-30T05:59:07;18.80;99.90
9919;DHT22;4998;51.024;13.828;2023-08-30T06:01:35;18.80;99.90
9919;DHT22;4998;51.024;13.828;2023-08-30T06:04:03;18.80;99.90
9919;DHT22;4998;51.024;13.828;2023-08-30T06:06:31;18.90;99.90
9919;DHT22;4998;51.024;13.828;2023-08-30T06:08:58;18.90;99.90
9919;DHT22;4998;51.024;13.828;2023-08-30T06:11:25;18.90;99.90
9919;DHT22;4998;51.024;13.828;2023-08-30T06:13:52;18.90;99.90
9919;DHT22;4998;51.024;13.828;2023-08-30T06:16:20;18.90;99.90
9919;DHT22;4998;51.024;13.828;2023-08-30T06:18:48;19.00;99.90
9919;DHT22;4998;51.024;13.828;2023-08-30T06:21:15;19.00;99.90
9919;DHT22;4998;51.024;13.828;2023-08-30T06:23:42;19.00;99.90
9919;DHT22;4998;51.024;13.828;2023-08-30T06:26:09;19.00;99.90
9919;DHT22;4998;51.024;13.828;2023-08-30T06:28:36;19.00;99.90
9919;DHT22;4998;51.024;13.828;2023-08-30T06:31:03;19.10;99.90
9919;DHT22;4998;51.024;13.828;2023-08-30T06:33:30;19.10;99.90
9919;DHT22;4998;51.024;13.828;2023-08-30T06:35:58;19.10;99.90
9919;DHT22;4998;51.024;13.828;2023-08-30T06:38:25;19.10;99.90
9919;DHT22;4998;51.024;13.828;2023-08-30T06:40:52;19.20;99.90
9919;DHT22;4998;51.024;13.828;2023-08-30T06:43:19;19.20;99.90
9919;DHT22;4998;51.024;13.828;2023-08-30T06:45:46;19.20;99.90
9919;DHT22;4998;51.024;13.828;2023-08-30T06:48:13;19.20;99.90
9919;DHT22;4998;51.024;13.828;2023-08-30T06:50:40;19.30;99.90
9919;DHT22;4998;51.024;13.828;2023-08-30T06:53:08;19.30;99.90
9919;DHT22;4998;51.024;13.828;2023-08-30T06:55:35;19.30;99.90
9919;DHT22;4998;51.024;13.828;2023-08-30T06:58:03;19.30;99.90
9919;DHT22;4998;51.024;13.828;2023-08-30T07:00:30;19.30;99.90
9919;DHT22;4998;51.024;13.828;2023-08-30T07:02:57;19.40;99.90
9919;DHT22;4998;51.024;13.828;2023-08-30T07:05:24;19.40;99.90
9919;DHT22;4998;51.024;13.828;2023-08-30T07:07:51;19.40;99.90
9919;DHT22;4998;51.024;13.828;2023-08-30T07:10:19;19.40;99.90
9919;DHT22;4998;51.024;13.828;2023-08-30T07:12:46;19.50;99.90
9919;DHT22;4998;51.024;13.828;2023-08-30T07:15:15;19.50;99.90
9919;DHT22;4998;51.024;13.828;2023-08-30T07:17:43;19.50;99.90
9919;DHT22;4998;51.024;13.828;2023-08-30T07:20:11;19.50;99.80
9919;DHT22;4998;51.024;13.828;2023-08-30T07:22:38;19.60;99.70
9919;DHT22;4998;51.024;13.828;2023-08-30T07:25:06;19.60;99.70
9919;DHT22;4998;51.024;13.828;2023-08-30T07:27:35;19.50;99.60
9919;DHT22;4998;51.024;13.828;2023-08-30T07:30:03;19.60;99.70
9919;DHT22;4998;51.024;13.828;2023-08-30T07:32:30;19.60;99.70
9919;DHT22;4998;51.024;13.828;2023-08-30T07:34:57;19.70;99.70
9919;DHT22;4998;51.024;13.828;2023-08-30T07:37:25;19.70;99.60
9919;DHT22;4998;51.024;13.828;2023-08-30T07:39:52;19.70;99.50
9919;DHT22;4998;51.024;13.828;2023-08-30T07:42:20;19.70;99.50
9919;DHT22;4998;51.024;13.828;2023-08-30T07:44:48;19.70;99.40
9919;DHT22;4998;51.024;13.828;2023-08-30T07:47:15;19.80;99.40
9919;DHT22;4998;51.024;13.828;2023-08-30T07:49:42;19.80;99.50
9919;DHT22;4998;51.024;13.828;2023-08-30T07:52:09;19.80;99.60
9919;DHT22;4998;51.024;13.828;2023-08-30T07:54:39;19.80;99.50
9919;DHT22;4998;51.024;13.828;2023-08-30T07:57:07;19.90;99.30
9919;DHT22;4998;51.024;13.828;2023-08-30T07:59:35;19.90;99.20
9919;DHT22;4998;51.024;13.828;2023-08-30T08:02:03;19.90;99.20
9919;DHT22;4998;51.024;13.828;2023-08-30T08:04:32;20.00;99.30
9919;DHT22;4998;51.024;13.828;2023-08-30T08:06:59;20.00;99.30
9919;DHT22;4998;51.024;13.828;2023-08-30T08:09:26;20.00;99.30
9919;DHT22;4998;51.024;13.828;2023-08-30T08:11:53;20.10;99.40
9919;DHT22;4998;51.024;13.828;2023-08-30T08:14:21;20.20;99.40
9919;DHT22;4998;51.024;13.828;2023-08-30T08:16:48;20.20;99.30
9919;DHT22;4998;51.024;13.828;2023-08-30T08:19:17;20.20;99.00
9919;DHT22;4998;51.024;13.828;2023-08-30T08:21:45;20.30;98.80
9919;DHT22;4998;51.024;13.828;2023-08-30T08:24:12;20.30;98.60
9919;DHT22;4998;51.024;13.828;2023-08-30T08:26:39;20.30;98.60
9919;DHT22;4998;51.024;13.828;2023-08-30T08:29:06;20.30;98.40
9919;DHT22;4998;51.024;13.828;2023-08-30T08:31:33;20.40;98.40
9919;DHT22;4998;51.024;13.828;2023-08-30T08:34:08;20.40;98.10
9919;DHT22;4998;51.024;13.828;2023-08-30T08:36:37;20.40;98.20
9919;DHT22;4998;51.024;13.828;2023-08-30T08:39:05;20.40;98.20
9919;DHT22;4998;51.024;13.828;2023-08-30T08:41:35;20.40;98.10
9919;DHT22;4998;51.024;13.828;2023-08-30T08:44:05;20.50;98.00
9919;DHT22;4998;51.024;13.828;2023-08-30T08:46:34;20.50;98.10
9919;DHT22;4998;51.024;13.828;2023-08-30T08:49:07;20.60;98.00
9919;DHT22;4998;51.024;13.828;2023-08-30T08:51:37;20.60;97.70
9919;DHT22;4998;51.024;13.828;2023-08-30T08:54:04;20.60;97.70
9919;DHT22;4998;51.024;13.828;2023-08-30T08:56:32;20.60;97.90
9919;DHT22;4998;51.024;13.828;2023-08-30T08:58:59;20.70;97.60
9919;DHT22;4998;51.024;13.828;2023-08-30T09:01:27;20.70;97.40
9919;DHT22;4998;51.024;13.828;2023-08-30T09:03:54;20.80;97.50
9919;DHT22;4998;51.024;13.828;2023-08-30T09:06:21;20.80;97.40
9919;DHT22;4998;51.024;13.828;2023-08-30T09:08:50;20.80;97.40
9919;DHT22;4998;51.024;13.828;2023-08-30T09:11:17;20.90;97.40
9919;DHT22;4998;51.024;13.828;2023-08-30T09:13:44;20.90;97.10
9919;DHT22;4998;51.024;13.828;2023-08-30T09:16:14;20.90;96.90
9919;DHT22;4998;51.024;13.828;2023-08-30T09:18:41;21.00;96.70
9919;DHT22;4998;51.024;13.828;2023-08-30T09:21:09;21.00;96.80
9919;DHT22;4998;51.024;13.828;2023-08-30T09:23:37;21.10;96.70
9919;DHT22;4998;51.024;13.828;2023-08-30T09:26:05;21.10;96.40
9919;DHT22;4998;51.024;13.828;2023-08-30T09:28:41;21.20;96.10
9919;DHT22;4998;51.024;13.828;2023-08-30T09:31:17;21.20;95.90
9919;DHT22;4998;51.024;13.828;2023-08-30T09:33:45;21.30;96.00
9919;DHT22;4998;51.024;13.828;2023-08-30T09:36:13;21.30;96.10
9919;DHT22;4998;51.024;13.828;2023-08-30T09:38:40;21.30;96.10
9919;DHT22;4998;51.024;13.828;2023-08-30T09:41:09;21.40;96.00
9919;DHT22;4998;51.024;13.828;2023-08-30T09:43:42;21.50;95.80
9919;DHT22;4998;51.024;13.828;2023-08-30T09:46:10;21.60;95.70
9919;DHT22;4998;51.024;13.828;2023-08-30T09:48:37;21.70;95.60
9919;DHT22;4998;51.024;13.828;2023-08-30T09:51:07;21.70;95.70
9919;DHT22;4998;51.024;13.828;2023-08-30T09:53:44;21.80;95.20
9919;DHT22;4998;51.024;13.828;2023-08-30T09:56:14;21.90;94.80
9919;DHT22;4998;51.024;13.828;2023-08-30T09:58:42;21.90;94.60
9919;DHT22;4998;51.024;13.828;2023-08-30T10:01:11;22.00;94.80
9919;DHT22;4998;51.024;13.828;2023-08-30T10:03:38;22.10;94.60
9919;DHT22;4998;51.024;13.828;2023-08-30T10:06:06;22.20;94.50
9919;DHT22;4998;51.024;13.828;2023-08-30T10:08:34;22.30;94.20
9919;DHT22;4998;51.024;13.828;2023-08-30T10:11:02;22.30;93.90
9919;DHT22;4998;51.024;13.828;2023-08-30T10:13:34;22.40;93.90
9919;DHT22;4998;51.024;13.828;2023-08-30T10:16:02;22.50;93.80
9919;DHT22;4998;51.024;13.828;2023-08-30T10:18:32;22.60;93.80
9919;DHT22;4998;51.024;13.828;2023-08-30T10:21:03;22.60;93.50
9919;DHT22;4998;51.024;13.828;2023-08-30T10:23:31;22.70;93.40
9919;DHT22;4998;51.024;13.828;2023-08-30T10:25:59;22.70;93.20
9919;DHT22;4998;51.024;13.828;2023-08-30T10:28:27;22.80;92.60
9919;DHT22;4998;51.024;13.828;2023-08-30T10:30:56;22.80;92.30
9919;DHT22;4998;51.024;13.828;2023-08-30T10:33:23;22.80;91.50
9919;DHT22;4998;51.024;13.828;2023-08-30T10:35:51;22.80;91.70
9919;DHT22;4998;51.024;13.828;2023-08-30T10:38:28;22.80;91.90
9919;DHT22;4998;51.024;13.828;2023-08-30T10:40:55;22.80;91.70
9919;DHT22;4998;51.024;13.828;2023-08-30T10:43:33;22.80;91.60
9919;DHT22;4998;51.024;13.828;2023-08-30T10:46:03;22.80;91.50
9919;DHT22;4998;51.024;13.828;2023-08-30T10:48:36;22.80;91.50
9919;DHT22;4998;51.024;13.828;2023-08-30T10:51:06;22.90;91.20
9919;DHT22;4998;51.024;13.828;2023-08-30T10:53:33;22.90;91.20
9919;DHT22;4998;51.024;13.828;2023-08-30T10:56:07;23.00;91.40
9919;DHT22;4998;51.024;13.828;2023-08-30T10:58:42;23.10;91.00
9919;DHT22;4998;51.024;13.828;2023-08-30T11:01:11;23.10;90.90
9919;DHT22;4998;51.024;13.828;2023-08-30T11:03:40;23.20;90.70
9919;DHT22;4998;51.024;13.828;2023-08-30T11:06:13;23.20;90.50
9919;DHT22;4998;51.024;13.828;2023-08-30T11:08:41;23.30;90.00
9919;DHT22;4998;51.024;13.828;2023-08-30T11:11:10;23.40;89.90
9919;DHT22;4998;51.024;13.828;2023-08-30T11:13:39;23.40;90.10
9919;DHT22;4998;51.024;13.828;2023-08-30T11:16:06;23.40;89.90
9919;DHT22;4998;51.024;13.828;2023-08-30T11:18:38;23.50;89.30
9919;DHT22;4998;51.024;13.828;2023-08-30T11:21:07;23.50;88.60
9919;DHT22;4998;51.024;13.828;2023-08-30T11:23:34;23.60;89.00
9919;DHT22;4998;51.024;13.828;2023-08-30T11:26:01;23.60;87.20
9919;DHT22;4998;51.024;13.828;2023-08-30T11:28:30;23.60;87.20
9919;DHT22;4998;51.024;13.828;2023-08-30T11:30:58;23.60;86.90
9919;DHT22;4998;51.024;13.828;2023-08-30T11:33:25;23.60;86.90
9919;DHT22;4998;51.024;13.828;2023-08-30T11:35:53;23.50;86.50
9919;DHT22;4998;51.024;13.828;2023-08-30T11:38:20;23.60;84.60
9919;DHT22;4998;51.024;13.828;2023-08-30T11:40:51;23.50;84.90
9919;DHT22;4998;51.024;13.828;2023-08-30T11:43:19;23.50;84.80
9919;DHT22;4998;51.024;13.828;2023-08-30T11:45:46;23.50;85.40
9919;DHT22;4998;51.024;13.828;2023-08-30T11:48:13;23.60;86.00
9919;DHT22;4998;51.024;13.828;2023-08-30T11:50:42;23.60;86.40
9919;DHT22;4998;51.024;13.828;2023-08-30T11:53:10;23.70;86.10
9919;DHT22;4998;51.024;13.828;2023-08-30T11:55:38;23.70;85.80
9919;DHT22;4998;51.024;13.828;2023-08-30T11:58:05;23.90;85.90
9919;DHT22;4998;51.024;13.828;2023-08-30T12:00:33;24.00;85.70
9919;DHT22;4998;51.024;13.828;2023-08-30T12:03:01;24.10;85.30
9919;DHT22;4998;51.024;13.828;2023-08-30T12:05:28;24.20;84.40
9919;DHT22;4998;51.024;13.828;2023-08-30T12:07:59;24.30;83.60
9919;DHT22;4998;51.024;13.828;2023-08-30T12:10:28;24.40;83.20
9919;DHT22;4998;51.024;13.828;2023-08-30T12:12:57;24.40;81.90
9919;DHT22;4998;51.024;13.828;2023-08-30T12:15:24;24.50;81.90
9919;DHT22;4998;51.024;13.828;2023-08-30T12:17:54;24.50;81.50
9919;DHT22;4998;51.024;13.828;2023-08-30T12:20:21;24.60;80.80
9919;DHT22;4998;51.024;13.828;2023-08-30T12:22:49;24.60;80.40
9919;DHT22;4998;51.024;13.828;2023-08-30T12:25:18;24.70;80.50
9919;DHT22;4998;51.024;13.828;2023-08-30T12:27:46;24.70;79.00
9919;DHT22;4998;51.024;13.828;2023-08-30T12:30:14;24.70;78.10
9919;DHT22;4998;51.024;13.828;2023-08-30T12:32:43;24.70;77.90
9919;DHT22;4998;51.024;13.828;2023-08-30T12:35:10;24.60;77.20
9919;DHT22;4998;51.024;13.828;2023-08-30T12:37:37;24.60;76.70
9919;DHT22;4998;51.024;13.828;2023-08-30T12:40:05;24.50;76.40
9919;DHT22;4998;51.024;13.828;2023-08-30T12:42:32;24.40;75.50
9919;DHT22;4998;51.024;13.828;2023-08-30T12:45:01;24.30;75.40
9919;DHT22;4998;51.024;13.828;2023-08-30T12:47:29;24.30;75.10
9919;DHT22;4998;51.024;13.828;2023-08-30T12:49:56;24.20;74.90
9919;DHT22;4998;51.024;13.828;2023-08-30T12:52:23;24.20;74.60
9919;DHT22;4998;51.024;13.828;2023-08-30T12:54:49;24.20;75.00
9919;DHT22;4998;51.024;13.828;2023-08-30T12:57:17;24.10;75.00
9919;DHT22;4998;51.024;13.828;2023-08-30T12:59:44;24.10;76.20
9919;DHT22;4998;51.024;13.828;2023-08-30T13:02:13;24.10;75.20
9919;DHT22;4998;51.024;13.828;2023-08-30T13:04:40;24.20;75.10
9919;DHT22;4998;51.024;13.828;2023-08-30T13:07:07;24.20;74.60
9919;DHT22;4998;51.024;13.828;2023-08-30T13:09:34;24.20;74.40
9919;DHT22;4998;51.024;13.828;2023-08-30T13:12:02;24.20;74.40
9919;DHT22;4998;51.024;13.828;2023-08-30T13:14:29;24.10;74.30
9919;DHT22;4998;51.024;13.828;2023-08-30T13:16:56;24.20;73.10
9919;DHT22;4998;51.024;13.828;2023-08-30T13:19:25;24.20;73.20
9919;DHT22;4998;51.024;13.828;2023-08-30T13:21:52;24.10;72.20
9919;DHT22;4998;51.024;13.828;2023-08-30T13:24:18;24.10;72.60
9919;DHT22;4998;51.024;13.828;2023-08-30T13:26:46;24.10;72.30
9919;DHT22;4998;51.024;13.828;2023-08-30T13:29:12;24.10;72.00
9919;DHT22;4998;51.024;13.828;2023-08-30T13:31:40;24.10;71.70
9919;DHT22;4998;51.024;13.828;2023-08-30T13:34:07;24.10;71.30
9919;DHT22;4998;51.024;13.828;2023-08-30T13:36:36;24.10;71.70
9919;DHT22;4998;51.024;13.828;2023-08-30T13:39:04;24.10;71.50
9919;DHT22;4998;51.024;13.828;2023-08-30T13:41:31;24.10;70.80
9919;DHT22;4998;51.024;13.828;2023-08-30T13:43:58;24.30;71.20
9919;DHT22;4998;51.024;13.828;2023-08-30T13:46:25;24.30;70.80
9919;DHT22;4998;51.024;13.828;2023-08-30T13:48:52;24.30;70.60
9919;DHT22;4998;51.024;13.828;2023-08-30T13:51:22;24.40;70.60
9919;DHT22;4998;51.024;13.828;2023-08-30T13:53:51;24.50;69.10
9919;DHT22;4998;51.024;13.828;2023-08-30T13:56:18;24.50;68.60
9919;DHT22;4998;51.024;13.828;2023-08-30T13:58:45;24.50;68.60
9919;DHT22;4998;51.024;13.828;2023-08-30T14:01:12;24.50;68.60
9919;DHT22;4998;51.024;13.828;2023-08-30T14:03:40;24.60;68.60
9919;DHT22;4998;51.024;13.828;2023-08-30T14:06:07;24.60;68.20
9919;DHT22;4998;51.024;13.828;2023-08-30T14:08:34;24.60;67.10
9919;DHT22;4998;51.024;13.828;2023-08-30T14:11:03;24.60;66.90
9919;DHT22;4998;51.024;13.828;2023-08-30T14:13:30;24.60;66.50
9919;DHT22;4998;51.024;13.828;2023-08-30T14:15:58;24.60;66.60
9919;DHT22;4998;51.024;13.828;2023-08-30T14:18:25;24.60;66.30
9919;DHT22;4998;51.024;13.828;2023-08-30T14:20:55;24.60;66.20
9919;DHT22;4998;51.024;13.828;2023-08-30T14:23:23;24.50;65.40
9919;DHT22;4998;51.024;13.828;2023-08-30T14:25:55;24.50;66.30
9919;DHT22;4998;51.024;13.828;2023-08-30T14:28:25;24.60;65.60
9919;DHT22;4998;51.024;13.828;2023-08-30T14:30:52;24.50;66.00
9919;DHT22;4998;51.024;13.828;2023-08-30T14:33:19;24.60;66.20
9919;DHT22;4998;51.024;13.828;2023-08-30T14:35:47;24.60;65.90
9919;DHT22;4998;51.024;13.828;2023-08-30T14:38:14;24.60;65.40
9919;DHT22;4998;51.024;13.828;2023-08-30T14:40:41;24.70;65.20
9919;DHT22;4998;51.024;13.828;2023-08-30T14:43:08;24.80;65.40
9919;DHT22;4998;51.024;13.828;2023-08-30T14:45:36;24.70;65.10
9919;DHT22;4998;51.024;13.828;2023-08-30T14:48:04;24.80;64.80
9919;DHT22;4998;51.024;13.828;2023-08-30T14:50:31;24.80;64.70
9919;DHT22;4998;51.024;13.828;2023-08-30T14:52:58;24.80;64.70
9919;DHT22;4998;51.024;13.828;2023-08-30T14:55:25;24.90;64.70
9919;DHT22;4998;51.024;13.828;2023-08-30T14:57:52;24.90;64.30
9919;DHT22;4998;51.024;13.828;2023-08-30T15:00:19;24.90;64.00
9919;DHT22;4998;51.024;13.828;2023-08-30T15:02:47;25.00;63.90
9919;DHT22;4998;51.024;13.828;2023-08-30T15:05:14;25.00;63.10
9919;DHT22;4998;51.024;13.828;2023-08-30T15:07:41;25.00;63.10
9919;DHT22;4998;51.024;13.828;2023-08-30T15:10:09;25.00;62.60
9919;DHT22;4998;51.024;13.828;2023-08-30T15:12:36;25.00;62.30
9919;DHT22;4998;51.024;13.828;2023-08-30T15:15:04;25.00;61.90
9919;DHT22;4998;51.024;13.828;2023-08-30T15:17:31;24.90;61.80
9919;DHT22;4998;51.024;13.828;2023-08-30T15:20:00;24.90;61.90
9919;DHT22;4998;51.024;13.828;2023-08-30T15:22:26;25.00;61.50
9919;DHT22;4998;51.024;13.828;2023-08-30T15:24:54;24.80;61.30
9919;DHT22;4998;51.024;13.828;2023-08-30T15:27:20;24.80;61.40
9919;DHT22;4998;51.024;13.828;2023-08-30T15:29:47;24.80;61.50
9919;DHT22;4998;51.024;13.828;2023-08-30T15:32:17;24.80;61.40
9919;DHT22;4998;51.024;13.828;2023-08-30T15:34:44;24.70;61.30
9919;DHT22;4998;51.024;13.828;2023-08-30T15:37:13;24.60;61.20
9919;DHT22;4998;51.024;13.828;2023-08-30T15:39:40;24.60;61.10
9919;DHT22;4998;51.024;13.828;2023-08-30T15:42:07;24.60;61.60
9919;DHT22;4998;51.024;13.828;2023-08-30T15:44:35;24.60;62.00
9919;DHT22;4998;51.024;13.828;2023-08-30T15:47:02;24.60;62.30
9919;DHT22;4998;51.024;13.828;2023-08-30T15:49:29;24.60;62.20
9919;DHT22;4998;51.024;13.828;2023-08-30T15:51:56;24.60;62.40
9919;DHT22;4998;51.024;13.828;2023-08-30T15:54:24;24.60;62.40